createdAt,value
2023-05-25T00:00:18.345Z,9.62
2023-05-25T00:01:18.309Z,9.65
2023-05-25T00:02:18.368Z,9.71
2023-05-25T00:03:18.370Z,9.73
2023-05-25T00:04:18.331Z,9.78
2023-05-25T00:05:18.329Z,9.78
2023-05-25T00:06:18.278Z,9.78
2023-05-25T00:07:18.256Z,9.77
2023-05-25T00:08:18.237Z,9.75
2023-05-25T00:09:18.242Z,9.74
2023-05-25T00:10:18.239Z,9.77
2023-05-25T00:11:18.207Z,9.86
2023-05-25T00:12:18.205Z,9.86
2023-05-25T00:13:18.189Z,9.86
2023-05-25T00:14:18.171Z,9.83
2023-05-25T00:15:18.170Z,9.85
2023-05-25T00:16:18.176Z,9.77
2023-05-25T00:17:18.200Z,9.78
2023-05-25T00:18:18.167Z,9.75
2023-05-25T00:19:18.136Z,9.74
2023-05-25T00:20:18.151Z,9.75
2023-05-25T00:21:18.100Z,9.80
2023-05-25T00:22:19.706Z,9.80
2023-05-25T00:23:18.115Z,9.78
2023-05-25T00:24:18.064Z,9.73
2023-05-25T00:25:18.059Z,9.68
2023-05-25T00:26:18.061Z,9.67
2023-05-25T00:27:18.042Z,9.68
2023-05-25T00:28:18.049Z,9.67
2023-05-25T00:29:18.019Z,9.68
2023-05-25T00:30:18.008Z,9.67
2023-05-25T00:31:18.030Z,9.62
2023-05-25T00:32:17.978Z,9.63
2023-05-25T00:33:18.056Z,9.63
2023-05-25T00:34:17.979Z,9.65
2023-05-25T00:35:17.958Z,9.65
2023-05-25T00:36:17.936Z,9.60
2023-05-25T00:37:17.948Z,9.59
2023-05-25T00:38:17.918Z,9.56
2023-05-25T00:39:17.942Z,9.58
2023-05-25T00:40:17.898Z,9.55
2023-05-25T00:41:17.893Z,9.58
2023-05-25T00:42:17.874Z,9.56
2023-05-25T00:43:17.868Z,9.55
2023-05-25T00:44:17.877Z,9.50
2023-05-25T00:45:17.863Z,9.48
2023-05-25T00:46:17.875Z,9.52
2023-05-25T00:47:17.867Z,9.52
2023-05-25T00:48:17.827Z,9.53
2023-05-25T00:49:17.823Z,9.50
2023-05-25T00:50:17.990Z,9.49
2023-05-25T00:51:17.801Z,9.45
2023-05-25T00:52:18.710Z,9.55
2023-05-25T00:53:17.778Z,9.55
2023-05-25T00:54:17.779Z,9.53
2023-05-25T00:55:17.754Z,9.55
2023-05-25T00:56:17.734Z,9.55
2023-05-25T00:57:17.730Z,9.53
2023-05-25T00:58:17.720Z,9.52
2023-05-25T00:59:17.994Z,9.48
2023-05-25T01:00:17.730Z,9.42
2023-05-25T01:01:17.718Z,9.37
2023-05-25T01:02:17.836Z,9.31
2023-05-25T01:03:18.110Z,9.23
2023-05-25T01:04:17.661Z,9.19
2023-05-25T01:05:17.666Z,9.20
2023-05-25T01:06:17.647Z,9.19
2023-05-25T01:07:17.672Z,9.22
2023-05-25T01:08:19.047Z,9.23
2023-05-25T01:09:17.610Z,9.22
2023-05-25T01:10:17.739Z,9.24
2023-05-25T01:11:17.585Z,9.23
2023-05-25T01:12:17.597Z,9.22
2023-05-25T01:13:17.585Z,9.16
2023-05-25T01:14:17.550Z,9.16
2023-05-25T01:15:17.586Z,9.16
2023-05-25T01:16:17.588Z,9.13
2023-05-25T01:17:17.537Z,9.08
2023-05-25T01:18:17.504Z,9.06
2023-05-25T01:19:17.626Z,9.00
2023-05-25T01:20:17.538Z,8.94
2023-05-25T01:21:17.481Z,8.94
2023-05-25T01:22:17.456Z,8.89
2023-05-25T01:23:17.482Z,8.83
2023-05-25T01:24:17.581Z,8.83
2023-05-25T01:25:17.461Z,8.78
2023-05-25T01:26:17.423Z,8.76
2023-05-25T01:27:17.429Z,8.73
2023-05-25T01:28:17.404Z,8.73
2023-05-25T01:29:17.431Z,8.70
2023-05-25T01:30:17.418Z,8.73
2023-05-25T01:31:17.386Z,8.67
2023-05-25T01:32:17.412Z,8.67
2023-05-25T01:33:17.376Z,8.65
2023-05-25T01:34:17.363Z,8.68
2023-05-25T01:35:17.384Z,8.71
2023-05-25T01:36:17.321Z,8.65
2023-05-25T01:37:17.326Z,8.73
2023-05-25T01:38:17.304Z,8.75
2023-05-25T01:39:17.307Z,8.76
2023-05-25T01:40:17.321Z,8.75
2023-05-25T01:41:17.301Z,8.76
2023-05-25T01:42:17.765Z,8.75
2023-05-25T01:43:17.256Z,8.70
2023-05-25T01:44:17.233Z,8.68
2023-05-25T01:45:17.268Z,8.68
2023-05-25T01:46:17.293Z,8.70
2023-05-25T01:47:17.224Z,8.76
2023-05-25T01:48:17.213Z,8.85
2023-05-25T01:49:17.200Z,8.82
2023-05-25T01:50:17.206Z,8.82
2023-05-25T01:51:17.205Z,8.83
2023-05-25T01:52:17.186Z,8.83
2023-05-25T01:53:17.157Z,8.82
2023-05-25T01:54:17.141Z,8.83
2023-05-25T01:55:17.143Z,8.83
2023-05-25T01:56:17.141Z,8.85
2023-05-25T01:57:17.128Z,8.82
2023-05-25T01:58:17.112Z,8.83
2023-05-25T01:59:17.099Z,8.85
2023-05-25T02:00:17.100Z,8.78
2023-05-25T02:01:17.136Z,8.79
2023-05-25T02:02:19.342Z,8.79
2023-05-25T02:03:17.053Z,8.82
2023-05-25T02:04:17.097Z,8.85
2023-05-25T02:05:17.043Z,8.89
2023-05-25T02:06:17.038Z,8.98
2023-05-25T02:07:17.016Z,9.00
2023-05-25T02:08:17.017Z,9.00
2023-05-25T02:09:17.003Z,8.97
2023-05-25T02:10:16.988Z,8.94
2023-05-25T02:11:16.980Z,8.91
2023-05-25T02:12:16.951Z,8.89
2023-05-25T02:13:16.990Z,8.88
2023-05-25T02:14:16.897Z,8.85
2023-05-25T02:15:16.935Z,8.89
2023-05-25T02:16:16.977Z,8.94
2023-05-25T02:17:16.915Z,8.98
2023-05-25T02:18:16.879Z,8.97
2023-05-25T02:19:16.845Z,8.96
2023-05-25T02:20:16.853Z,8.97
2023-05-25T02:21:16.815Z,8.94
2023-05-25T02:22:16.820Z,8.91
2023-05-25T02:23:16.897Z,8.91
2023-05-25T02:24:16.793Z,8.91
2023-05-25T02:25:16.776Z,8.93
2023-05-25T02:26:16.797Z,8.91
2023-05-25T02:27:16.764Z,8.88
2023-05-25T02:28:16.770Z,8.86
2023-05-25T02:29:16.751Z,8.85
2023-05-25T02:30:16.756Z,8.79
2023-05-25T02:31:16.751Z,8.73
2023-05-25T02:32:16.694Z,8.71
2023-05-25T02:33:16.692Z,8.70
2023-05-25T02:34:16.686Z,8.67
2023-05-25T02:35:16.697Z,8.61
2023-05-25T02:36:16.678Z,8.60
2023-05-25T02:37:16.652Z,8.57
2023-05-25T02:38:16.643Z,8.57
2023-05-25T02:39:16.633Z,8.57
2023-05-25T02:40:16.656Z,8.57
2023-05-25T02:41:16.616Z,8.57
2023-05-25T02:42:16.611Z,8.60
2023-05-25T02:43:16.720Z,8.57
2023-05-25T02:44:16.587Z,8.54
2023-05-25T02:45:16.572Z,8.54
2023-05-25T02:46:16.626Z,8.57
2023-05-25T02:47:16.561Z,8.65
2023-05-25T02:48:16.545Z,8.67
2023-05-25T02:49:16.537Z,8.70
2023-05-25T02:50:16.534Z,8.68
2023-05-25T02:51:16.538Z,8.67
2023-05-25T02:52:16.526Z,8.65
2023-05-25T02:53:16.511Z,8.64
2023-05-25T02:54:16.499Z,8.63
2023-05-25T02:55:16.464Z,8.57
2023-05-25T02:56:16.459Z,8.54
2023-05-25T02:57:16.444Z,8.49
2023-05-25T02:58:16.463Z,8.47
2023-05-25T02:59:17.959Z,8.46
2023-05-25T03:00:17.173Z,8.42
2023-05-25T03:01:16.418Z,8.37
2023-05-25T03:02:16.417Z,8.42
2023-05-25T03:03:17.119Z,8.39
2023-05-25T03:04:16.385Z,8.43
2023-05-25T03:05:19.728Z,8.40
2023-05-25T03:06:16.361Z,8.37
2023-05-25T03:07:17.956Z,8.34
2023-05-25T03:08:17.961Z,8.29
2023-05-25T03:09:17.877Z,8.28
2023-05-25T03:10:16.322Z,8.28
2023-05-25T03:11:16.303Z,8.25
2023-05-25T03:12:19.676Z,8.25
2023-05-25T03:13:16.306Z,8.28
2023-05-25T03:14:16.896Z,8.27
2023-05-25T03:15:16.270Z,8.22
2023-05-25T03:16:16.918Z,8.21
2023-05-25T03:17:16.237Z,8.20
2023-05-25T03:18:16.272Z,8.22
2023-05-25T03:19:17.830Z,8.21
2023-05-25T03:20:16.302Z,8.22
2023-05-25T03:21:16.202Z,8.28
2023-05-25T03:22:16.907Z,8.46
2023-05-25T03:23:17.836Z,8.49
2023-05-25T03:24:16.176Z,8.52
2023-05-25T03:25:17.757Z,8.55
2023-05-25T03:26:16.801Z,8.58
2023-05-25T03:27:16.800Z,8.58
2023-05-25T03:28:16.882Z,8.61
2023-05-25T03:29:16.849Z,8.61
2023-05-25T03:30:17.728Z,8.61
2023-05-25T03:31:16.130Z,8.63
2023-05-25T03:32:16.803Z,8.63
2023-05-25T03:33:16.774Z,8.61
2023-05-25T03:34:19.592Z,8.65
2023-05-25T03:35:17.758Z,8.68
2023-05-25T03:36:16.334Z,8.75
2023-05-25T03:37:16.732Z,8.76
2023-05-25T03:38:16.053Z,8.75
2023-05-25T03:39:16.078Z,8.82
2023-05-25T03:40:16.678Z,8.86
2023-05-25T03:41:16.029Z,8.89
2023-05-25T03:42:17.597Z,8.94
2023-05-25T03:43:16.005Z,8.93
2023-05-25T03:44:16.018Z,8.93
2023-05-25T03:45:15.990Z,8.91
2023-05-25T03:46:16.002Z,8.93
2023-05-25T03:47:16.614Z,8.96
2023-05-25T03:48:15.975Z,8.94
2023-05-25T03:49:15.974Z,8.96
2023-05-25T03:50:15.928Z,8.96
2023-05-25T03:51:16.602Z,8.97
2023-05-25T03:52:15.928Z,8.98
2023-05-25T03:53:15.906Z,9.00
2023-05-25T03:54:16.625Z,9.03
2023-05-25T03:55:16.603Z,9.03
2023-05-25T03:56:17.476Z,9.08
2023-05-25T03:57:17.496Z,9.10
2023-05-25T03:58:15.854Z,9.15
2023-05-25T03:59:17.553Z,9.20
2023-05-25T04:00:16.533Z,9.24
2023-05-25T04:01:15.837Z,9.30
2023-05-25T04:02:15.831Z,9.38
2023-05-25T04:03:15.870Z,9.42
2023-05-25T04:04:15.849Z,9.52
2023-05-25T04:05:15.807Z,9.62
2023-05-25T04:06:16.422Z,9.68
2023-05-25T04:07:15.758Z,9.74
2023-05-25T04:08:17.426Z,9.80
2023-05-25T04:09:15.794Z,9.85
2023-05-25T04:10:15.741Z,9.89
2023-05-25T04:11:15.714Z,9.89
2023-05-25T04:12:15.715Z,9.88
2023-05-25T04:13:16.403Z,9.85
2023-05-25T04:14:16.403Z,9.81
2023-05-25T04:15:15.709Z,9.81
2023-05-25T04:16:15.677Z,9.78
2023-05-25T04:17:15.662Z,9.80
2023-05-25T04:18:15.654Z,9.78
2023-05-25T04:19:16.016Z,9.77
2023-05-25T04:20:15.696Z,9.74
2023-05-25T04:21:20.707Z,9.75
2023-05-25T04:22:17.229Z,9.71
2023-05-25T04:23:17.812Z,9.68
2023-05-25T04:24:15.577Z,9.68
2023-05-25T04:25:15.606Z,9.65
2023-05-25T04:26:16.269Z,9.63
2023-05-25T04:27:17.159Z,9.60
2023-05-25T04:28:15.539Z,9.62
2023-05-25T04:29:15.524Z,9.63
2023-05-25T04:30:15.524Z,9.68
2023-05-25T04:31:15.560Z,9.67
2023-05-25T04:32:15.707Z,9.67
2023-05-25T04:33:15.493Z,9.68
2023-05-25T04:34:15.490Z,9.74
2023-05-25T04:35:15.462Z,9.73
2023-05-25T04:36:15.480Z,9.75
2023-05-25T04:37:15.446Z,9.74
2023-05-25T04:38:15.427Z,9.75
2023-05-25T04:39:15.423Z,9.78
2023-05-25T04:40:15.425Z,9.78
2023-05-25T04:41:15.395Z,9.86
2023-05-25T04:42:15.402Z,9.86
2023-05-25T04:43:15.360Z,9.89
2023-05-25T04:44:15.366Z,9.92
2023-05-25T04:45:15.343Z,9.93
2023-05-25T04:46:15.418Z,9.96
2023-05-25T04:47:15.365Z,9.99
2023-05-25T04:48:15.317Z,10.06
2023-05-25T04:49:15.306Z,10.06
2023-05-25T04:50:15.301Z,10.07
2023-05-25T04:51:15.284Z,10.07
2023-05-25T04:52:20.272Z,10.10
2023-05-25T04:53:16.309Z,10.11
2023-05-25T04:54:15.990Z,10.11
2023-05-25T04:55:16.799Z,10.13
2023-05-25T04:56:16.868Z,10.16
2023-05-25T04:57:15.240Z,10.18
2023-05-25T04:58:15.228Z,10.20
2023-05-25T05:31:57.021Z,11.85
2023-05-25T05:32:57.980Z,11.87
2023-05-25T05:33:58.097Z,11.96
2023-05-25T05:34:57.895Z,11.96
2023-05-25T05:35:57.900Z,12.01
2023-05-25T05:36:58.968Z,12.03
2023-05-25T05:37:57.870Z,12.12
2023-05-25T05:38:58.457Z,12.21
2023-05-25T05:39:59.432Z,12.31
2023-05-25T05:40:59.443Z,12.33
2023-05-25T05:41:59.446Z,12.36
2023-05-25T05:42:59.467Z,12.37
2023-05-25T05:43:59.412Z,12.49
2023-05-25T05:44:59.404Z,12.54
2023-05-25T05:45:59.459Z,12.62
2023-05-25T05:46:59.378Z,12.70
2023-05-25T05:47:59.381Z,12.76
2023-05-25T05:48:59.350Z,12.76
2023-05-25T05:49:59.368Z,12.91
2023-05-25T05:50:59.351Z,12.92
2023-05-25T05:51:59.335Z,12.99
2023-05-25T05:52:59.341Z,13.09
2023-05-25T05:53:59.302Z,13.22
2023-05-25T05:54:59.288Z,13.29
2023-05-25T05:55:59.291Z,13.44
2023-05-25T05:56:59.296Z,13.61
2023-05-25T05:57:59.246Z,13.63
2023-05-25T05:58:59.249Z,13.71
2023-05-25T06:00:00.274Z,13.79
2023-05-25T06:00:59.224Z,13.94
2023-05-25T06:01:59.311Z,14.09
2023-05-25T06:02:59.225Z,14.21
2023-05-25T06:03:59.201Z,14.44
2023-05-25T06:04:59.178Z,14.85
2023-05-25T06:05:59.277Z,15.25
2023-05-25T06:06:59.388Z,15.56
2023-05-25T06:07:59.637Z,15.80
2023-05-25T06:08:59.324Z,16.18
2023-05-25T06:10:00.849Z,16.27
2023-05-25T06:11:00.470Z,16.77
2023-05-25T06:11:59.383Z,17.02
2023-05-25T06:13:00.721Z,17.47
2023-05-25T06:14:00.060Z,17.49
2023-05-25T06:15:00.614Z,17.83
2023-05-25T06:15:59.178Z,18.28
2023-05-25T06:16:59.809Z,18.41
2023-05-25T06:17:59.131Z,18.71
2023-05-25T06:18:59.402Z,19.06
2023-05-25T06:19:59.041Z,19.40
2023-05-25T06:20:59.090Z,19.40
2023-05-25T06:21:59.003Z,19.57
2023-05-25T06:22:59.022Z,19.46
2023-05-25T06:23:58.991Z,19.38
2023-05-25T06:24:58.998Z,19.43
2023-05-25T06:25:59.016Z,19.53
2023-05-25T06:26:58.985Z,20.17
2023-05-25T06:27:59.119Z,20.40
2023-05-25T06:28:58.954Z,20.76
2023-05-25T06:29:58.990Z,20.88
2023-05-25T06:30:58.900Z,21.00
2023-05-25T06:31:58.918Z,21.22
2023-05-25T06:32:58.987Z,21.46
2023-05-25T06:33:58.875Z,21.40
2023-05-25T06:34:58.981Z,21.33
2023-05-25T06:35:58.884Z,21.48
2023-05-25T06:36:58.838Z,21.43
2023-05-25T06:37:59.865Z,21.55
2023-05-25T06:38:58.812Z,21.40
2023-05-25T06:39:58.820Z,21.34
2023-05-25T06:40:58.809Z,21.63
2023-05-25T06:41:59.140Z,21.79
2023-05-25T06:42:58.819Z,21.85
2023-05-25T06:43:59.861Z,21.98
2023-05-25T06:44:58.776Z,22.29
2023-05-25T06:45:58.823Z,22.23
2023-05-25T06:46:58.749Z,21.73
2023-05-25T06:47:58.785Z,21.37
2023-05-25T06:48:58.715Z,21.06
2023-05-25T06:49:58.747Z,21.21
2023-05-25T06:50:58.687Z,21.63
2023-05-25T06:52:00.558Z,21.40
2023-05-25T06:53:00.415Z,21.27
2023-05-25T06:53:58.707Z,21.53
2023-05-25T06:54:58.740Z,21.75
2023-05-25T06:55:58.636Z,21.85
2023-05-25T06:56:59.230Z,22.39
2023-05-25T06:57:58.622Z,22.81
2023-05-25T06:58:58.609Z,22.97
2023-05-25T06:59:58.621Z,23.00
2023-05-25T07:00:59.470Z,23.45
2023-05-25T07:02:00.015Z,22.99
2023-05-25T07:03:00.189Z,23.29
2023-05-25T07:03:58.579Z,23.49
2023-05-25T07:04:59.105Z,23.56
2023-05-25T07:06:00.167Z,23.50
2023-05-25T07:07:00.141Z,23.34
2023-05-25T07:07:58.535Z,23.45
2023-05-25T07:08:58.483Z,23.25
2023-05-25T07:09:58.530Z,23.45
2023-05-25T07:10:58.586Z,23.34
2023-05-25T07:11:58.584Z,23.49
2023-05-25T07:12:58.680Z,23.56
2023-05-25T07:13:58.449Z,24.05
2023-05-25T07:14:58.424Z,24.37
2023-05-25T07:15:58.451Z,24.63
2023-05-25T07:17:01.810Z,24.11
2023-05-25T07:17:59.575Z,24.04
2023-05-25T07:19:00.180Z,24.15
2023-05-25T07:19:58.437Z,24.16
2023-05-25T07:20:58.378Z,24.63
2023-05-25T07:21:58.365Z,24.09
2023-05-25T07:22:58.355Z,24.16
2023-05-25T07:23:58.380Z,23.52
2023-05-25T07:24:58.976Z,23.78
2023-05-25T07:25:58.359Z,24.56
2023-05-25T07:26:58.968Z,24.74
2023-05-25T07:27:58.305Z,24.63
2023-05-25T07:29:00.068Z,24.89
2023-05-25T07:30:01.733Z,25.04
2023-05-25T07:30:58.790Z,25.44
2023-05-25T07:31:58.261Z,25.83
2023-05-25T07:32:59.361Z,25.91
2023-05-25T07:33:58.240Z,26.00
2023-05-25T07:34:58.255Z,25.74
2023-05-25T07:35:58.212Z,25.42
2023-05-25T07:36:58.188Z,25.31
2023-05-25T07:37:58.201Z,25.48
2023-05-25T07:38:58.177Z,25.46
2023-05-25T07:39:58.203Z,24.67
2023-05-25T07:40:58.168Z,25.17
2023-05-25T07:41:58.710Z,25.12
2023-05-25T07:42:58.378Z,24.70
2023-05-25T07:43:58.169Z,24.26
2023-05-25T07:44:59.301Z,23.97
2023-05-25T07:45:59.718Z,24.55
2023-05-25T07:46:58.201Z,25.31
2023-05-25T07:47:58.597Z,25.38
2023-05-25T07:48:58.092Z,24.79
2023-05-25T07:50:00.904Z,25.42
2023-05-25T07:50:58.752Z,25.46
2023-05-25T07:52:00.703Z,25.67
2023-05-25T07:52:58.055Z,25.78
2023-05-25T07:53:58.539Z,25.83
2023-05-25T07:54:59.109Z,25.11
2023-05-25T07:55:58.719Z,25.46
2023-05-25T07:56:57.994Z,25.64
2023-05-25T07:57:57.993Z,26.29
2023-05-25T07:58:58.038Z,26.61
2023-05-25T07:59:58.310Z,26.78
2023-05-25T08:01:03.233Z,26.71
2023-05-25T08:01:58.102Z,26.57
2023-05-25T09:13:50.398Z,26.46
2023-05-25T09:14:43.017Z,26.31
2023-05-25T09:15:43.110Z,26.20
2023-05-25T09:16:43.028Z,26.20
2023-05-25T09:17:43.040Z,25.72
2023-05-25T09:18:42.985Z,25.49
2023-05-25T09:19:42.936Z,25.45
2023-05-25T09:20:46.088Z,25.97
2023-05-25T10:23:54.575Z,26.79
2023-05-25T10:24:56.894Z,27.16
2023-05-25T10:25:55.523Z,27.03
2023-05-25T10:26:55.557Z,27.52
2023-05-25T10:27:56.703Z,28.03
2023-05-25T10:28:56.216Z,28.36
2023-05-25T10:29:55.709Z,27.81
2023-05-25T10:30:55.500Z,27.46
2023-05-25T10:31:58.680Z,27.39
2023-05-25T10:32:56.618Z,26.83
2023-05-25T10:33:55.680Z,26.79
2023-05-25T10:34:55.446Z,27.01
2023-05-25T10:36:09.168Z,27.16
2023-05-25T10:36:55.467Z,27.06
2023-05-25T10:37:55.739Z,26.86
2023-05-25T10:38:56.150Z,26.93
2023-05-25T10:39:56.091Z,27.11
2023-05-25T10:40:56.008Z,26.87
2023-05-25T10:41:56.613Z,27.16
2023-05-25T10:42:57.047Z,27.99
2023-05-25T10:43:55.337Z,28.33
2023-05-25T10:44:55.341Z,28.92
2023-05-25T10:45:57.493Z,29.03
2023-05-25T10:46:55.348Z,29.23
2023-05-25T10:47:57.069Z,29.51
2023-05-25T10:48:55.279Z,29.11
2023-05-25T10:49:56.200Z,28.80
2023-05-25T10:50:56.985Z,27.21
2023-05-25T10:51:56.766Z,27.69
2023-05-25T10:52:55.980Z,26.66
2023-05-25T10:53:55.944Z,26.94
2023-05-25T10:54:56.234Z,27.40
2023-05-25T10:55:56.986Z,27.01
2023-05-25T10:56:55.217Z,27.24
2023-05-25T10:57:55.196Z,27.18
2023-05-25T10:58:56.861Z,27.80
2023-05-25T10:59:55.207Z,27.48
2023-05-25T11:00:56.029Z,27.09
2023-05-25T11:01:59.868Z,27.03
2023-05-25T11:02:56.236Z,26.46
2023-05-25T11:03:55.178Z,26.53
2023-05-25T11:04:56.565Z,26.69
2023-05-25T11:05:55.907Z,26.69
2023-05-25T11:06:55.120Z,26.29
2023-05-25T11:07:55.795Z,26.51
2023-05-25T11:08:58.986Z,27.30
2023-05-25T11:09:55.076Z,27.98
2023-05-25T11:10:55.079Z,28.87
2023-05-25T11:11:55.054Z,29.02
2023-05-25T11:12:55.088Z,28.61
2023-05-25T11:13:55.116Z,28.82
2023-05-25T11:14:56.344Z,29.42
2023-05-25T11:15:55.792Z,29.39
2023-05-25T11:16:55.050Z,29.99
2023-05-25T11:17:55.090Z,29.97
2023-05-25T11:18:55.067Z,29.82
2023-05-25T11:19:55.047Z,29.25
2023-05-25T11:20:55.035Z,28.35
2023-05-25T11:21:56.742Z,28.88
2023-05-25T11:22:56.872Z,28.77
2023-05-25T11:23:55.566Z,28.97
2023-05-25T11:24:56.433Z,29.49
2023-05-25T11:25:55.629Z,29.69
2023-05-25T11:26:54.954Z,29.60
2023-05-25T11:27:54.934Z,29.20
2023-05-25T11:28:54.925Z,29.25
2023-05-25T11:29:54.893Z,28.23
2023-05-25T11:30:55.602Z,27.34
2023-05-25T11:31:54.931Z,27.59
2023-05-25T11:32:54.930Z,27.69
2023-05-25T11:33:54.854Z,27.16
2023-05-25T11:34:55.768Z,27.43
2023-05-25T11:35:54.949Z,28.74
2023-05-25T11:36:54.851Z,29.12
2023-05-25T11:37:54.808Z,29.70
2023-05-25T11:39:04.936Z,30.11
2023-05-25T11:39:54.794Z,30.22
2023-05-25T11:40:54.823Z,30.22
2023-05-25T11:41:54.784Z,30.32
2023-05-25T11:42:54.815Z,29.51
2023-05-25T11:43:54.772Z,28.43
2023-05-25T11:44:56.397Z,28.08
2023-05-25T11:45:55.448Z,28.21
2023-05-25T11:46:55.323Z,27.78
2023-05-25T11:47:55.479Z,27.71
2023-05-25T11:48:54.709Z,29.26
2023-05-25T11:49:54.717Z,28.83
2023-05-25T11:50:56.292Z,29.17
2023-05-25T11:51:54.992Z,27.71
2023-05-25T11:52:54.671Z,27.23
2023-05-25T11:53:56.259Z,26.84
2023-05-25T11:54:54.688Z,25.82
2023-05-25T11:56:07.050Z,26.32
2023-05-25T11:56:56.384Z,26.56
2023-05-25T11:57:54.630Z,26.17
2023-05-25T11:58:56.235Z,26.16
2023-05-25T11:59:56.336Z,26.01
2023-05-25T12:00:55.251Z,25.53
2023-05-25T12:01:54.559Z,25.57
2023-05-25T12:02:56.619Z,25.49
2023-05-25T12:03:55.489Z,25.82
2023-05-25T12:04:55.392Z,26.81
2023-05-25T12:05:56.053Z,27.50
2023-05-25T12:06:55.298Z,27.02
2023-05-25T12:07:54.733Z,26.42
2023-05-25T12:08:54.543Z,27.25
2023-05-25T12:09:54.530Z,27.96
2023-05-25T12:10:54.667Z,27.84
2023-05-25T12:11:54.492Z,28.17
2023-05-25T12:12:54.499Z,28.70
2023-05-25T12:13:54.452Z,28.73
2023-05-25T12:14:55.691Z,29.11
2023-05-25T12:15:54.432Z,29.55
2023-05-25T12:16:54.446Z,30.36
2023-05-25T12:17:54.660Z,30.04
2023-05-25T12:18:54.432Z,29.92
2023-05-25T12:19:54.440Z,29.39
2023-05-25T12:20:54.545Z,29.35
2023-05-25T12:21:54.364Z,29.60
2023-05-25T12:22:54.379Z,29.35
2023-05-25T12:23:54.352Z,29.73
2023-05-25T12:24:54.361Z,30.08
2023-05-25T12:25:54.515Z,29.66
2023-05-25T12:26:54.349Z,30.22
2023-05-25T12:27:54.329Z,29.21
2023-05-25T12:28:54.971Z,28.43
2023-05-25T12:29:54.331Z,28.43
2023-05-25T12:30:54.310Z,29.25
2023-05-25T12:31:54.948Z,29.74
2023-05-25T12:32:54.324Z,30.06
2023-05-25T12:33:54.298Z,30.08
2023-05-25T12:34:54.269Z,29.88
2023-05-25T12:35:54.266Z,29.51
2023-05-25T12:36:54.299Z,29.70
2023-05-25T12:37:54.241Z,29.27
2023-05-25T12:38:54.213Z,29.57
2023-05-25T12:39:55.552Z,28.83
2023-05-25T12:40:54.189Z,28.46
2023-05-25T12:41:54.805Z,29.05
2023-05-25T12:42:54.188Z,30.28
2023-05-25T12:43:54.162Z,30.68
2023-05-25T12:44:54.405Z,31.50
2023-05-25T12:45:54.166Z,31.57
2023-05-25T12:46:54.152Z,30.85
2023-05-25T12:47:55.085Z,29.99
2023-05-25T12:48:54.112Z,28.70
2023-05-25T12:49:54.124Z,27.18
2023-05-25T12:50:54.085Z,26.06
2023-05-25T12:51:54.112Z,25.19
2023-05-25T12:52:54.073Z,25.04
2023-05-25T12:53:54.083Z,25.11
2023-05-25T12:54:54.067Z,25.54
2023-05-25T12:55:54.049Z,25.22
2023-05-25T12:56:54.057Z,25.09
2023-05-25T12:57:54.041Z,24.84
2023-05-25T12:58:54.018Z,24.52
2023-05-25T12:59:54.024Z,24.39
2023-05-25T13:00:54.919Z,24.02
2023-05-25T13:01:54.940Z,23.56
2023-05-25T13:02:54.105Z,23.41
2023-05-25T13:03:53.975Z,23.31
2023-05-25T13:04:54.009Z,23.16
2023-05-25T13:05:53.993Z,23.29
2023-05-25T13:06:53.946Z,24.44
2023-05-25T13:07:53.965Z,25.89
2023-05-25T13:08:53.924Z,25.89
2023-05-25T13:09:53.985Z,26.20
2023-05-25T13:10:53.897Z,25.56
2023-05-25T13:11:53.894Z,24.98
2023-05-25T13:12:54.016Z,24.63
2023-05-25T13:13:53.883Z,24.30
2023-05-25T13:14:53.882Z,24.14
2023-05-25T13:15:53.902Z,24.15
2023-05-25T13:16:53.987Z,24.11
2023-05-25T13:17:53.974Z,24.15
2023-05-25T13:18:53.820Z,24.52
2023-05-25T13:19:53.890Z,25.93
2023-05-25T13:20:56.368Z,26.57
2023-05-25T13:21:53.817Z,26.79
2023-05-25T13:22:53.814Z,26.20
2023-05-25T13:23:53.787Z,25.49
2023-05-25T13:24:53.796Z,25.12
2023-05-25T13:25:53.764Z,24.89
2023-05-25T13:26:53.754Z,24.44
2023-05-25T13:27:53.739Z,24.33
2023-05-25T13:28:53.734Z,23.94
2023-05-25T13:29:53.723Z,23.78
2023-05-25T13:30:53.721Z,23.79
2023-05-25T13:31:53.794Z,23.82
2023-05-25T13:32:53.749Z,24.06
2023-05-25T13:33:53.672Z,24.31
2023-05-25T13:34:53.674Z,24.31
2023-05-25T13:35:53.667Z,24.53
2023-05-25T13:36:53.720Z,24.63
2023-05-25T13:37:53.648Z,24.93
2023-05-25T13:38:53.615Z,25.76
2023-05-25T13:39:53.627Z,25.49
2023-05-25T13:40:53.625Z,25.98
2023-05-25T13:41:53.586Z,25.20
2023-05-25T13:42:53.607Z,26.08
2023-05-25T13:43:53.580Z,25.69
2023-05-25T13:44:53.560Z,25.30
2023-05-25T13:45:53.588Z,24.79
2023-05-25T13:46:53.568Z,24.46
2023-05-25T13:47:53.617Z,24.49
2023-05-25T13:48:53.555Z,25.63
2023-05-25T13:49:53.497Z,24.90
2023-05-25T13:50:53.491Z,24.44
2023-05-25T13:51:53.505Z,24.05
2023-05-25T13:52:53.470Z,23.72
2023-05-25T13:53:53.533Z,23.59
2023-05-25T13:54:53.480Z,23.71
2023-05-25T13:55:53.455Z,24.63
2023-05-25T13:56:53.434Z,25.59
2023-05-25T13:57:53.428Z,26.54
2023-05-25T13:58:53.439Z,27.28
2023-05-25T13:59:53.457Z,27.55
2023-05-25T14:00:53.401Z,26.71
2023-05-25T14:01:55.810Z,25.78
2023-05-25T14:02:53.457Z,24.89
2023-05-25T14:03:53.511Z,24.02
2023-05-25T14:04:53.364Z,23.42
2023-05-25T14:05:53.353Z,23.31
2023-05-25T14:06:53.363Z,23.16
2023-05-25T14:07:54.518Z,22.96
2023-05-25T14:08:53.309Z,22.79
2023-05-25T14:09:53.352Z,23.25
2023-05-25T14:10:53.299Z,23.35
2023-05-25T14:11:53.767Z,24.00
2023-05-25T14:12:53.302Z,24.46
2023-05-25T14:13:53.311Z,25.78
2023-05-25T14:14:53.252Z,26.34
2023-05-25T14:15:53.289Z,27.18
2023-05-25T14:16:53.229Z,28.15
2023-05-25T14:17:54.608Z,28.03
2023-05-25T14:18:53.215Z,28.70
2023-05-25T14:19:53.329Z,28.50
2023-05-25T14:20:53.194Z,28.43
2023-05-25T14:22:10.974Z,28.73
2023-05-25T14:22:53.258Z,28.82
2023-05-25T14:23:53.179Z,29.32
2023-05-25T14:24:53.155Z,29.85
2023-05-25T14:25:53.143Z,30.10
2023-05-25T14:26:53.178Z,30.42
2023-05-25T14:27:53.169Z,30.70
2023-05-25T14:28:53.123Z,30.94
2023-05-25T14:29:53.107Z,30.85
2023-05-25T14:30:53.104Z,31.10
2023-05-25T14:31:53.222Z,31.01
2023-05-25T14:32:53.151Z,30.23
2023-05-25T14:33:53.087Z,30.26
2023-05-25T14:34:53.064Z,30.16
2023-05-25T14:35:53.056Z,29.85
2023-05-25T14:36:53.060Z,30.13
2023-05-25T14:37:53.079Z,30.11
2023-05-25T14:38:53.027Z,30.04
2023-05-25T14:39:53.014Z,29.71
2023-05-25T14:40:52.992Z,29.81
2023-05-25T14:41:53.020Z,29.64
2023-05-25T14:42:52.978Z,29.20
2023-05-25T14:43:53.002Z,28.57
2023-05-25T14:44:52.980Z,28.03
2023-05-25T14:45:52.948Z,27.38
2023-05-25T14:46:52.981Z,27.23
2023-05-25T14:48:04.043Z,26.93
2023-05-25T14:48:52.934Z,26.11
2023-05-25T14:49:52.916Z,25.56
2023-05-25T14:50:52.892Z,25.23
2023-05-25T14:51:52.884Z,25.02
2023-05-25T14:52:52.948Z,24.90
2023-05-25T14:53:52.905Z,24.59
2023-05-25T14:54:52.855Z,24.26
2023-05-25T14:55:52.889Z,23.89
2023-05-25T14:56:52.841Z,23.63
2023-05-25T14:57:52.840Z,23.03
2023-05-25T14:58:52.856Z,22.96
2023-05-25T14:59:52.810Z,22.85
2023-05-25T15:00:52.798Z,22.85
2023-05-25T15:01:52.907Z,22.79
2023-05-25T15:02:52.828Z,22.75
2023-05-25T15:03:53.092Z,22.60
2023-05-25T15:04:52.765Z,22.41
2023-05-25T15:05:52.766Z,22.19
2023-05-25T15:06:52.774Z,22.01
2023-05-25T15:07:52.751Z,21.77
2023-05-25T15:08:52.714Z,21.71
2023-05-25T15:09:52.719Z,21.77
2023-05-25T15:10:52.681Z,21.79
2023-05-25T15:11:52.720Z,21.85
2023-05-25T15:12:52.676Z,22.04
2023-05-25T15:13:52.680Z,22.17
2023-05-25T15:14:52.665Z,22.21
2023-05-25T15:15:52.690Z,22.38
2023-05-25T15:16:52.652Z,22.51
2023-05-25T15:17:52.656Z,22.57
2023-05-25T15:18:52.617Z,22.46
2023-05-25T15:19:52.680Z,22.21
2023-05-25T15:20:52.595Z,22.23
2023-05-25T15:21:52.611Z,22.23
2023-05-25T15:22:52.568Z,22.33
2023-05-25T15:23:52.562Z,22.35
2023-05-25T15:24:52.564Z,22.33
2023-05-25T15:25:52.572Z,22.24
2023-05-25T15:26:52.522Z,22.15
2023-05-25T15:27:52.523Z,22.02
2023-05-25T15:28:52.592Z,21.99
2023-05-25T15:29:52.535Z,22.02
2023-05-25T15:30:52.511Z,21.98
2023-05-25T15:31:52.660Z,21.86
2023-05-25T15:32:52.501Z,21.89
2023-05-25T15:33:58.201Z,21.85
2023-05-25T15:34:52.559Z,21.81
2023-05-25T15:35:52.475Z,21.79
2023-05-25T15:36:52.686Z,21.67
2023-05-25T15:37:52.429Z,21.45
2023-05-25T15:38:52.417Z,21.38
2023-05-25T15:39:52.415Z,21.37
2023-05-25T15:40:52.400Z,21.40
2023-05-25T15:41:52.425Z,21.38
2023-05-25T15:42:52.383Z,21.42
2023-05-25T15:43:52.454Z,21.42
2023-05-25T15:44:52.337Z,21.49
2023-05-25T15:45:52.356Z,21.51
2023-05-25T15:46:54.045Z,21.48